Time;durP1;ratioP1;P1;durP2;ratioP2;P2;SDS_P1;SDS_P2;PMS_P1;PMS_P2;Temp;Humidity;BMP_temperature;BMP_pressure;BME280_temperature;BME280_humidity;BME280_pressure;Samples;Min_cycle;Max_cycle;Signal;HPM_P1;HPM_P2
2022/08/24 00:00:43;;;;;;;5.90;3.63;;;20.90;99.90;;;;;;4800448;29;20055;-96
2022/08/24 00:03:13;;;;;;;8.20;3.67;;;20.90;99.90;;;;;;4811691;29;20070;-96
2022/08/24 00:05:41;;;;;;;7.45;4.50;;;20.90;99.90;;;;;;4808262;30;20051;-96
2022/08/24 00:08:09;;;;;;;5.03;3.28;;;20.90;99.90;;;;;;4809818;29;20067;-96
2022/08/24 00:10:38;;;;;;;6.35;3.85;;;20.80;99.90;;;;;;4802522;29;20043;-96
2022/08/24 00:13:08;;;;;;;6.15;3.88;;;20.80;99.90;;;;;;4859170;29;20138;-96
2022/08/24 00:15:36;;;;;;;5.97;3.80;;;20.80;99.90;;;;;;4844449;29;20048;-96
2022/08/24 00:18:04;;;;;;;5.93;4.05;;;20.80;99.90;;;;;;4838472;29;20549;-96
2022/08/24 00:20:32;;;;;;;6.22;4.00;;;20.80;99.90;;;;;;4861757;29;20530;-96
2022/08/24 00:22:59;;;;;;;6.45;4.20;;;20.70;99.90;;;;;;4879613;29;20048;-96
2022/08/24 00:25:27;;;;;;;6.80;4.25;;;20.70;99.90;;;;;;4876203;29;20049;-96
2022/08/24 00:27:55;;;;;;;6.30;3.95;;;20.70;99.90;;;;;;4848023;29;20073;-96
2022/08/24 00:30:23;;;;;;;5.35;3.97;;;20.70;99.90;;;;;;4852551;29;20100;-96
2022/08/24 00:32:53;;;;;;;5.90;3.78;;;20.70;99.90;;;;;;4863634;29;20060;-96
2022/08/24 00:35:21;;;;;;;6.43;4.35;;;20.70;99.90;;;;;;4857181;29;20061;-96
2022/08/24 00:37:50;;;;;;;6.18;4.45;;;20.70;99.90;;;;;;4844308;29;20510;-96
2022/08/24 00:40:22;;;;;;;7.15;4.60;;;20.60;99.90;;;;;;4851930;29;20565;-96
2022/08/24 00:42:51;;;;;;;7.82;4.68;;;20.60;99.90;;;;;;4809799;29;20074;-96
2022/08/24 00:45:19;;;;;;;6.00;4.15;;;20.70;99.90;;;;;;4791039;29;20162;-96
2022/08/24 00:48:10;;;;;;;6.30;4.20;;;20.60;99.90;;;;;;4810462;29;20046;-96
2022/08/24 00:50:47;;;;;;;5.53;4.10;;;20.60;99.90;;;;;;4792079;29;20074;-96
2022/08/24 00:53:27;;;;;;;6.07;4.50;;;20.60;99.90;;;;;;4826971;29;20057;-96
2022/08/24 00:55:58;;;;;;;6.80;3.83;;;20.60;99.90;;;;;;4820266;29;20050;-96
2022/08/24 00:58:40;;;;;;;5.82;4.13;;;20.70;99.90;;;;;;4799688;29;20575;-96
2022/08/24 01:01:08;;;;;;;;;;;20.60;99.90;;;;;;4832869;29;20052;-96
2022/08/24 01:03:37;;;;;;;7.15;4.38;;;20.60;99.90;;;;;;4848438;29;19962;-96
2022/08/24 01:06:05;;;;;;;7.03;4.75;;;20.60;99.90;;;;;;4848951;29;20053;-96
2022/08/24 01:08:33;;;;;;;7.82;4.70;;;20.60;99.90;;;;;;4839522;29;20050;-96
2022/08/24 01:11:05;;;;;;;8.27;4.88;;;20.50;99.90;;;;;;4840089;29;20121;-96
2022/08/24 01:13:33;;;;;;;6.10;4.97;;;20.50;99.90;;;;;;4827326;29;20132;-96
2022/08/24 01:16:06;;;;;;;7.53;4.05;;;20.50;99.90;;;;;;4868841;29;20495;-96
2022/08/24 01:18:50;;;;;;;7.00;4.28;;;20.50;99.90;;;;;;4826075;29;20068;-96
2022/08/24 01:21:33;;;;;;;6.60;4.10;;;20.50;99.90;;;;;;4888244;29;20056;-96
2022/08/24 01:24:04;;;;;;;7.72;4.88;;;20.50;99.90;;;;;;4871147;29;20294;-96
2022/08/24 01:26:41;;;;;;;9.32;4.85;;;20.50;99.90;;;;;;4893430;29;20045;-96
2022/08/24 01:29:22;;;;;;;7.07;4.45;;;20.50;99.90;;;;;;4875213;29;20038;-96
2022/08/24 01:31:52;;;;;;;8.15;4.55;;;20.50;99.90;;;;;;4890409;29;20045;-96
2022/08/24 01:34:20;;;;;;;7.72;5.30;;;20.40;99.90;;;;;;4901975;29;20077;-96
2022/08/24 01:36:54;;;;;;;7.45;4.78;;;20.40;99.90;;;;;;4882748;29;20054;-96
2022/08/24 01:39:33;;;;;;;6.88;4.93;;;20.40;99.90;;;;;;4894888;29;20056;-96
2022/08/24 01:42:01;;;;;;;7.00;4.85;;;20.40;99.90;;;;;;4883446;29;20136;-96
2022/08/24 01:44:35;;;;;;;5.50;4.50;;;20.40;99.90;;;;;;4895728;29;20048;-96
2022/08/24 01:47:05;;;;;;;7.38;4.93;;;20.40;99.90;;;;;;4887355;29;20106;-96
2022/08/24 01:49:43;;;;;;;6.97;4.82;;;20.40;99.90;;;;;;4900874;29;20101;-96
2022/08/24 01:52:15;;;;;;;9.73;5.75;;;20.40;99.90;;;;;;4871863;29;20049;-96
2022/08/24 01:54:43;;;;;;;8.68;5.25;;;20.40;99.90;;;;;;4862635;29;20074;-96
2022/08/24 01:57:12;;;;;;;8.50;5.03;;;20.40;99.90;;;;;;4879339;29;20068;-95
2022/08/24 01:59:43;;;;;;;8.53;5.17;;;20.40;99.90;;;;;;4878387;29;20082;-96
2022/08/24 02:02:21;;;;;;;7.45;5.00;;;20.40;99.90;;;;;;4874609;29;20137;-96
2022/08/24 02:04:49;;;;;;;8.85;4.63;;;20.40;99.90;;;;;;4883773;29;20078;-96
2022/08/24 02:07:18;;;;;;;10.20;5.05;;;20.10;99.90;;;;;;4880104;29;20037;-96
2022/08/24 02:09:46;;;;;;;6.95;5.15;;;20.30;99.90;;;;;;4887809;29;20033;-96
2022/08/24 02:12:16;;;;;;;7.70;5.25;;;20.30;99.90;;;;;;4890284;29;20080;-96
2022/08/24 02:14:45;;;;;;;9.50;5.53;;;20.30;99.90;;;;;;4885795;29;20072;-96
2022/08/24 02:17:12;;;;;;;6.78;5.10;;;20.30;99.90;;;;;;4873389;29;20072;-96
2022/08/24 02:19:40;;;;;;;10.15;5.55;;;20.30;99.90;;;;;;4875377;29;20112;-96
2022/08/24 02:22:09;;;;;;;7.22;4.75;;;20.20;99.90;;;;;;4882291;29;20049;-96
2022/08/24 02:24:39;;;;;;;7.70;5.07;;;20.30;99.90;;;;;;4884404;29;20088;-96
2022/08/24 02:27:07;;;;;;;7.55;4.72;;;20.20;99.90;;;;;;4893927;29;20459;-96
2022/08/24 02:29:35;;;;;;;7.03;4.82;;;20.20;99.90;;;;;;4881625;29;20100;-96
2022/08/24 02:32:05;;;;;;;7.55;5.00;;;20.20;99.90;;;;;;4899595;29;20060;-96
2022/08/24 02:34:34;;;;;;;7.40;4.68;;;20.20;99.90;;;;;;4880782;29;20049;-96
2022/08/24 02:37:06;;;;;;;8.77;5.40;;;20.10;99.90;;;;;;4882676;29;20045;-96
2022/08/24 02:39:58;;;;;;;7.78;5.28;;;20.20;99.90;;;;;;4863664;29;20090;-96
2022/08/24 02:42:27;;;;;;;6.82;4.95;;;20.10;99.90;;;;;;4867190;29;20046;-96
2022/08/24 02:44:55;;;;;;;8.15;5.38;;;20.10;99.90;;;;;;4848632;29;20052;-96
2022/08/24 02:47:24;;;;;;;8.70;5.32;;;20.10;99.90;;;;;;4857637;29;20069;-96
2022/08/24 02:50:08;;;;;;;;;;;20.00;99.90;;;;;;4874185;29;20056;-96
2022/08/24 02:56:07;;;;;;;9.35;5.55;;;20.10;99.90;;;;;;4902519;23;20080;-96
2022/08/24 02:58:37;;;;;;;9.55;5.47;;;20.00;99.90;;;;;;4860558;29;20073;-96
2022/08/24 03:01:07;;;;;;;8.50;5.90;;;20.00;99.90;;;;;;4860725;29;20074;-96
2022/08/24 03:03:45;;;;;;;7.97;5.28;;;20.00;99.90;;;;;;4872577;29;20114;-96
2022/08/24 03:06:13;;;;;;;9.45;5.18;;;20.00;99.90;;;;;;4831484;29;20042;-96
2022/08/24 03:08:41;;;;;;;8.38;4.97;;;20.00;99.90;;;;;;4837737;29;20038;-96
2022/08/24 03:11:16;;;;;;;9.45;5.38;;;20.00;99.90;;;;;;4863301;29;20050;-96
2022/08/24 03:13:44;;;;;;;11.65;5.85;;;20.00;99.90;;;;;;4862938;29;20057;-96
2022/08/24 03:16:12;;;;;;;9.10;5.72;;;20.00;99.90;;;;;;4876420;29;20050;-96
2022/08/24 03:23:10;;;;;;;8.63;5.63;;;20.00;99.90;;;;;;5125012;23;20100;-96
2022/08/24 03:25:37;;;;;;;9.25;5.13;;;19.90;99.90;;;;;;4909707;29;20568;-96
2022/08/24 03:28:25;;;;;;;10.73;6.30;;;19.80;99.90;;;;;;5348540;24;20049;-96
2022/08/24 03:38:21;;;;;;;9.95;5.65;;;19.70;99.90;;;;;;5582214;23;20135;-96
2022/08/24 03:40:50;;;;;;;13.60;6.45;;;19.90;99.90;;;;;;4835390;29;20068;-96
2022/08/24 03:46:27;;;;;;;10.05;6.55;;;20.00;99.90;;;;;;5083394;24;20064;-96
2022/08/24 03:48:57;;;;;;;9.40;6.10;;;19.90;99.90;;;;;;5386402;24;20982;-96
2022/08/24 04:02:49;;;;;;;10.98;6.90;;;19.90;99.90;;;;;;5832957;23;20101;31
2022/08/24 04:20:10;;;;;;;9.95;6.32;;;19.80;99.90;;;;;;5467611;23;20137;-96
2022/08/24 04:30:05;;;;;;;12.20;6.65;;;19.80;99.90;;;;;;5079871;23;20044;-96
2022/08/24 04:32:44;;;;;;;12.50;6.85;;;19.80;99.90;;;;;;4888599;29;20048;-96
2022/08/24 04:35:12;;;;;;;13.50;7.13;;;19.90;99.90;;;;;;4874509;29;20033;-94
2022/08/24 04:37:44;;;;;;;12.35;6.40;;;19.90;99.90;;;;;;4915551;24;20050;-96
2022/08/24 04:44:56;;;;;;;10.07;5.80;;;19.90;99.90;;;;;;783428;24;20254;-96
2022/08/24 04:51:05;;;;;;;11.43;7.13;;;20.00;99.90;;;;;;1358730;24;20236;-92
2022/08/24 04:53:37;;;;;;;8.75;5.90;;;20.10;99.90;;;;;;4872535;29;20117;-96
2022/08/24 04:56:11;;;;;;;9.88;6.40;;;20.00;99.90;;;;;;4885887;29;20053;-96
2022/08/24 04:58:39;;;;;;;11.45;6.32;;;20.10;99.90;;;;;;4862891;29;20047;-96
2022/08/24 05:01:11;;;;;;;9.55;5.63;;;20.00;99.90;;;;;;4867911;29;20080;-96
2022/08/24 05:03:39;;;;;;;9.10;5.55;;;20.00;99.90;;;;;;4861686;29;20101;-95
2022/08/24 05:06:09;;;;;;;8.93;5.68;;;20.10;99.90;;;;;;4883795;29;20087;-92
2022/08/24 05:08:37;;;;;;;11.02;5.78;;;20.20;99.90;;;;;;4867249;29;20025;-96
2022/08/24 05:11:07;;;;;;;8.07;5.15;;;20.20;99.90;;;;;;4882191;29;20044;-96
2022/08/24 05:13:37;;;;;;;9.05;5.72;;;20.30;99.90;;;;;;4953282;24;20118;-96
2022/08/24 05:16:09;;;;;;;11.63;5.20;;;20.40;99.90;;;;;;4861048;29;20044;-96
2022/08/24 05:18:37;;;;;;;8.88;5.47;;;20.30;99.90;;;;;;4860292;29;20411;-92
2022/08/24 05:21:10;;;;;;;7.20;4.80;;;20.40;99.90;;;;;;4858521;29;20048;-95
2022/08/24 05:23:39;;;;;;;8.90;4.60;;;20.40;99.90;;;;;;4857788;29;20498;-92
2022/08/24 05:26:24;;;;;;;8.68;4.65;;;20.50;99.90;;;;;;4847351;29;20050;-92
2022/08/24 05:28:57;;;;;;;8.02;4.40;;;20.60;99.90;;;;;;4848854;29;20050;-93
2022/08/24 05:31:31;;;;;;;8.30;4.70;;;20.50;99.90;;;;;;4849495;29;20057;-94
2022/08/24 05:34:04;;;;;;;7.00;4.13;;;20.60;99.90;;;;;;4845686;29;20081;-90
2022/08/24 05:36:36;;;;;;;6.88;4.25;;;20.70;99.90;;;;;;4861085;29;20047;-95
2022/08/24 05:39:08;;;;;;;6.28;3.97;;;20.80;99.90;;;;;;4846475;29;20073;-92
2022/08/24 05:41:41;;;;;;;5.85;4.15;;;20.80;99.90;;;;;;4831094;29;20056;-94
2022/08/24 05:44:20;;;;;;;8.40;4.32;;;20.90;99.90;;;;;;4859206;29;20069;-95
2022/08/24 05:46:49;;;;;;;6.93;3.95;;;21.00;99.90;;;;;;4857795;29;20063;-93
2022/08/24 05:49:16;;;;;;;10.18;4.30;;;21.00;99.90;;;;;;4845817;29;20053;-88
2022/08/24 05:51:43;;;;;;;7.10;4.13;;;21.10;99.90;;;;;;4843946;29;20049;-93
2022/08/24 05:54:12;;;;;;;6.97;3.97;;;21.20;99.90;;;;;;4842773;29;20044;-91
2022/08/24 05:57:06;;;;;;;6.03;4.20;;;21.30;99.90;;;;;;4854415;29;20141;-93
2022/08/24 05:59:41;;;;;;;6.15;4.40;;;21.50;99.90;;;;;;4853957;29;20149;-90
2022/08/24 06:02:14;;;;;;;7.32;4.13;;;21.50;99.90;;;;;;4871078;29;20046;-92
2022/08/24 06:04:41;;;;;;;6.72;3.95;;;21.60;99.90;;;;;;4847597;29;20049;-90
2022/08/24 06:07:10;;;;;;;12.23;4.78;;;21.70;99.90;;;;;;4862931;29;20048;-92
2022/08/24 06:09:42;;;;;;;7.47;3.78;;;21.70;99.90;;;;;;4829070;29;20094;-93
2022/08/24 06:12:13;;;;;;;7.28;4.10;;;21.90;99.90;;;;;;4830111;29;20046;-92
2022/08/24 06:14:46;;;;;;;6.43;3.15;;;22.00;99.90;;;;;;4852163;29;20061;-94
2022/08/24 06:17:20;;;;;;;7.25;4.18;;;22.00;99.90;;;;;;4846409;29;20061;-91
2022/08/24 06:19:49;;;;;;;6.10;3.45;;;22.30;99.90;;;;;;4856252;29;20049;-91
2022/08/24 06:22:16;;;;;;;7.82;4.53;;;22.10;99.90;;;;;;4853956;29;20051;-91
2022/08/24 06:27:31;;;;;;;6.90;3.63;;;22.10;99.90;;;;;;4855526;29;20053;-85
2022/08/24 06:30:02;;;;;;;5.00;3.45;;;22.30;99.90;;;;;;4857450;29;20050;-89
2022/08/24 06:32:50;;;;;;;4.93;3.90;;;22.60;99.90;;;;;;4854237;29;20065;-88
2022/08/24 06:35:25;;;;;;;6.10;3.25;;;22.90;99.90;;;;;;4848201;29;20050;-90
2022/08/24 06:37:55;;;;;;;6.70;3.20;;;23.10;99.90;;;;;;4839156;29;20064;-88
2022/08/24 06:40:24;;;;;;;4.63;3.25;;;23.20;99.90;;;;;;4834182;29;20046;-89
2022/08/24 06:42:52;;;;;;;5.75;3.22;;;23.20;99.90;;;;;;4838725;29;20057;-87
2022/08/24 06:45:54;;;;;;;5.65;2.70;;;23.20;99.90;;;;;;4817396;29;20105;-89
2022/08/24 06:48:33;;;;;;;5.70;2.88;;;23.20;99.90;;;;;;4852380;29;20064;-91
2022/08/24 06:51:09;;;;;;;5.38;2.53;;;23.20;99.90;;;;;;4860927;29;20495;-90
2022/08/24 06:53:38;;;;;;;5.05;1.98;;;23.20;99.90;;;;;;4856729;29;20142;-92
2022/08/24 06:56:07;;;;;;;5.28;2.10;;;23.10;99.90;;;;;;4858611;29;20137;-89
2022/08/24 06:58:35;;;;;;;4.88;1.65;;;23.20;99.90;;;;;;4860854;29;20117;-92
2022/08/24 07:01:09;;;;;;;3.30;1.85;;;23.20;99.90;;;;;;4826810;29;20483;-90
2022/08/24 07:03:37;;;;;;;2.55;1.67;;;23.20;99.90;;;;;;4839408;29;20129;-90
2022/08/24 07:06:18;;;;;;;2.95;1.45;;;23.20;99.90;;;;;;4858860;29;20056;-95
2022/08/24 07:08:46;;;;;;;4.45;2.38;;;23.40;99.90;;;;;;4837696;29;20106;-95
2022/08/24 07:11:16;;;;;;;5.40;1.98;;;23.50;99.90;;;;;;4842785;29;20042;-90
2022/08/24 07:13:48;;;;;;;4.72;1.50;;;23.60;99.90;;;;;;4843036;29;20058;-89
2022/08/24 07:16:18;;;;;;;4.73;2.00;;;23.70;99.90;;;;;;4841497;29;20061;-92
2022/08/24 07:18:49;;;;;;;3.85;1.20;;;23.90;99.50;;;;;;4829002;29;20102;-88
2022/08/24 07:21:20;;;;;;;4.53;1.00;;;23.90;97.70;;;;;;4842148;29;20071;-90
2022/08/24 07:23:55;;;;;;;;;;;23.80;96.70;;;;;;4846181;29;20088;-89
2022/08/24 07:26:26;;;;;;;3.25;1.10;;;23.90;96.30;;;;;;4859305;29;20323;-92
2022/08/24 07:29:00;;;;;;;2.70;1.00;;;23.90;96.90;;;;;;4860673;29;20109;-94
2022/08/24 07:31:32;;;;;;;1.70;0.63;;;24.10;96.50;;;;;;4840838;29;20141;-94
2022/08/24 07:34:14;;;;;;;3.45;0.90;;;24.00;96.90;;;;;;4858479;29;20106;-90
2022/08/24 07:36:43;;;;;;;2.22;1.08;;;23.90;96.40;;;;;;4861879;29;20141;-95
2022/08/24 07:39:11;;;;;;;1.83;0.88;;;24.00;97.20;;;;;;4846136;29;20106;-95
2022/08/24 07:41:42;;;;;;;3.00;1.00;;;24.10;96.00;;;;;;4848086;29;20134;-96
2022/08/24 07:44:31;;;;;;;3.53;0.75;;;24.10;95.90;;;;;;4843076;29;20049;-88
2022/08/24 07:47:03;;;;;;;2.65;1.13;;;23.90;96.40;;;;;;4859867;29;20190;-95
2022/08/24 07:49:50;;;;;;;2.15;1.30;;;23.70;97.00;;;;;;4850172;29;20046;-89
2022/08/24 07:52:18;;;;;;;3.65;1.38;;;23.70;98.20;;;;;;4860074;29;20061;-88
2022/08/24 07:54:46;;;;;;;2.47;1.30;;;23.70;98.40;;;;;;4844662;29;20176;-92
2022/08/24 07:57:14;;;;;;;3.17;0.95;;;23.80;99.10;;;;;;4840111;29;20175;-95
2022/08/24 07:59:41;;;;;;;3.72;1.40;;;23.80;98.90;;;;;;4845845;29;20106;-91
2022/08/24 08:02:10;;;;;;;3.83;1.58;;;23.80;98.30;;;;;;4853338;29;20061;-88
2022/08/24 08:04:38;;;;;;;2.15;1.15;;;24.00;98.10;;;;;;4843835;29;20258;-92
2022/08/24 08:07:06;;;;;;;2.78;0.98;;;24.00;97.70;;;;;;4856883;29;20064;-91
2022/08/24 08:09:37;;;;;;;3.65;1.63;;;24.20;97.60;;;;;;4847657;29;20046;-90
2022/08/24 08:12:05;;;;;;;2.35;1.50;;;24.30;97.40;;;;;;4850124;29;20045;-91
2022/08/24 08:14:33;;;;;;;2.85;1.05;;;24.30;97.60;;;;;;4828347;29;20206;-89
2022/08/24 08:17:00;;;;;;;2.65;1.25;;;24.30;97.60;;;;;;4855621;29;20057;-88
2022/08/24 08:19:28;;;;;;;3.13;1.35;;;24.50;97.80;;;;;;4855802;29;20496;-91
2022/08/24 08:25:02;;;;;;;3.20;1.52;;;24.80;96.60;;;;;;4838316;29;20056;-88
2022/08/24 08:27:31;;;;;;;3.03;1.52;;;24.60;96.40;;;;;;4841442;29;20106;-89
2022/08/24 08:30:00;;;;;;;6.63;1.95;;;24.50;97.20;;;;;;4854872;29;20045;-88
2022/08/24 08:32:30;;;;;;;2.70;1.55;;;24.50;98.10;;;;;;4842885;29;20077;-89
2022/08/24 08:34:57;;;;;;;5.43;2.45;;;24.60;98.90;;;;;;4818597;29;20046;-92
2022/08/24 08:37:30;;;;;;;6.63;1.90;;;24.60;96.70;;;;;;4854964;29;20133;-88
2022/08/24 08:39:58;;;;;;;6.07;2.20;;;24.60;97.20;;;;;;4852798;29;20193;-88
2022/08/24 08:43:00;;;;;;;7.90;2.92;;;24.60;98.30;;;;;;4842879;29;20053;-90
2022/08/24 08:45:40;;;;;;;7.25;2.20;;;24.70;97.40;;;;;;4855306;29;20049;-90
2022/08/24 08:48:33;;;;;;;7.72;2.55;;;24.80;97.60;;;;;;4854104;29;20411;-90
2022/08/24 08:51:24;;;;;;;6.53;2.33;;;24.90;97.70;;;;;;4851800;29;20052;-89
2022/08/24 08:54:10;;;;;;;8.13;2.40;;;25.00;97.00;;;;;;4855001;29;20749;-91
2022/08/24 08:57:00;;;;;;;9.30;3.10;;;25.00;96.60;;;;;;4853387;29;20061;-93
2022/08/24 08:59:37;;;;;;;7.18;2.45;;;25.20;97.10;;;;;;4873544;29;20050;-92
2022/08/24 09:02:29;;;;;;;7.45;2.28;;;25.30;96.20;;;;;;4853311;29;20046;-90
2022/08/24 09:05:44;;;;;;;7.43;2.33;;;25.30;94.70;;;;;;4838172;29;20049;-90
2022/08/24 09:08:32;;;;;;;4.80;2.58;;;25.20;94.90;;;;;;4848885;29;20053;-92
2022/08/24 09:11:02;;;;;;;7.90;2.85;;;25.00;95.10;;;;;;4838089;29;20047;-94
2022/08/24 09:13:53;;;;;;;7.85;2.28;;;25.00;95.60;;;;;;4806789;29;1338198;-91
2022/08/24 09:17:00;;;;;;;5.85;2.72;;;25.00;95.70;;;;;;4845946;29;20110;-88
2022/08/24 09:19:42;;;;;;;9.20;3.65;;;25.10;95.90;;;;;;4839843;29;20512;-90
2022/08/24 09:22:18;;;;;;;8.77;2.90;;;25.20;95.40;;;;;;4846934;29;20491;-90
2022/08/24 09:24:51;;;;;;;7.97;2.75;;;25.20;96.00;;;;;;4827636;29;20038;-90
2022/08/24 09:27:47;;;;;;;6.93;3.13;;;25.10;95.80;;;;;;4844420;29;20053;-87
2022/08/24 09:30:22;;;;;;;7.80;2.70;;;25.10;96.20;;;;;;4819398;29;20069;-88
2022/08/24 09:32:55;;;;;;;;;;;25.00;96.40;;;;;;4855475;29;20061;-93
2022/08/24 09:35:47;;;;;;;14.85;3.08;;;25.00;96.20;;;;;;4827295;29;19984;-90
2022/08/24 09:38:42;;;;;;;10.45;3.55;;;25.00;96.30;;;;;;4841690;29;20136;-94
2022/08/24 09:41:51;;;;;;;7.88;3.38;;;25.00;96.40;;;;;;4854401;29;20061;-88
2022/08/24 09:44:41;;;;;;;9.18;3.47;;;25.00;97.00;;;;;;4812333;29;20078;-89
2022/08/24 09:47:37;;;;;;;10.63;3.38;;;25.00;96.60;;;;;;4844314;29;20297;-89
2022/08/24 09:50:23;;;;;;;10.05;3.83;;;25.10;96.80;;;;;;4855213;29;20059;-89
2022/08/24 09:53:36;;;;;;;7.93;2.97;;;25.10;97.90;;;;;;4840361;29;20052;-89
2022/08/24 09:56:10;;;;;;;;;;;25.10;97.80;;;;;;4834178;29;20155;-85
2022/08/24 09:58:56;;;;;;;10.50;3.90;;;25.10;96.10;;;;;;4844370;29;19924;-94
2022/08/24 10:01:51;;;;;;;8.85;3.60;;;25.00;95.90;;;;;;4848777;29;20049;-96
2022/08/24 10:04:58;;;;;;;11.38;3.75;;;25.10;95.70;;;;;;4858376;29;20073;-92
2022/08/24 10:07:49;;;;;;;7.22;3.08;;;25.20;97.50;;;;;;4858632;29;20064;-89
2022/08/24 10:10:52;;;;;;;7.30;3.95;;;25.30;96.40;;;;;;4852643;29;20065;-87
2022/08/24 10:13:39;;;;;;;;;;;25.30;96.40;;;;;;4851947;29;20419;-94
2022/08/24 10:16:16;;;;;;;9.40;3.53;;;25.30;96.40;;;;;;4824642;29;19943;-91
2022/08/24 10:19:28;;;;;;;7.88;3.45;;;25.30;95.90;;;;;;4823106;29;20054;-92
2022/08/24 10:22:11;;;;;;;9.00;3.78;;;25.30;96.40;;;;;;4828295;29;20103;-91
2022/08/24 10:25:07;;;;;;;7.95;3.35;;;25.30;96.10;;;;;;4823060;29;20117;-89
2022/08/24 10:27:41;;;;;;;10.73;3.88;;;25.30;95.70;;;;;;4819645;29;20078;-92
2022/08/24 10:30:24;;;;;;;10.32;4.00;;;25.30;95.30;;;;;;4835272;29;20043;-91
2022/08/24 10:33:16;;;;;;;8.93;3.60;;;25.30;95.30;;;;;;4824607;29;20074;-87
2022/08/24 10:36:39;;;;;;;10.32;4.25;;;25.30;95.40;;;;;;4850105;29;20144;-89
2022/08/24 10:39:42;;;;;;;8.00;3.72;;;25.40;96.40;;;;;;4729102;30;20052;-93
2022/08/24 10:45:48;;;;;;;8.63;3.55;;;25.40;94.70;;;;;;4839858;29;19928;-90
2022/08/24 10:48:22;;;;;;;7.50;4.03;;;25.40;95.50;;;;;;4850230;29;20140;-89
2022/08/24 10:51:17;;;;;;;8.85;3.85;;;25.30;95.00;;;;;;4840511;29;20492;-95
2022/08/24 10:53:51;;;;;;;13.35;4.18;;;25.30;95.50;;;;;;4842257;29;20109;-90
2022/08/24 10:56:35;;;;;;;8.60;3.72;;;25.30;96.60;;;;;;4818448;29;20054;-88
2022/08/24 10:59:22;;;;;;;10.50;4.18;;;25.30;97.80;;;;;;4817622;29;20081;-89
2022/08/24 11:02:21;;;;;;;9.02;4.03;;;25.40;97.60;;;;;;4816554;29;20115;-88
2022/08/24 11:04:59;;;;;;;11.50;4.10;;;25.40;97.00;;;;;;4845166;29;20093;-91
2022/08/24 11:07:27;;;;;;;11.23;4.47;;;25.40;97.20;;;;;;4817720;29;20054;-92
2022/08/24 11:10:01;;;;;;;9.05;3.80;;;25.40;97.40;;;;;;4818751;29;20050;-86
2022/08/24 11:12:42;;;;;;;9.73;3.92;;;25.40;96.60;;;;;;4834841;29;20086;-89
2022/08/24 11:15:22;;;;;;;13.70;4.53;;;25.40;97.20;;;;;;4814617;29;20046;-89
2022/08/24 11:17:55;;;;;;;8.82;4.35;;;25.40;96.70;;;;;;4834774;29;20068;-87
2022/08/24 11:20:32;;;;;;;13.05;3.95;;;25.50;97.50;;;;;;4817328;29;20099;-87
2022/08/24 11:23:07;;;;;;;7.57;3.90;;;25.50;96.50;;;;;;4831876;29;20053;-88
2022/08/24 11:25:50;;;;;;;8.57;4.70;;;25.50;97.00;;;;;;4834634;29;20053;-89
2022/08/24 11:28:31;;;;;;;17.27;5.53;;;25.50;96.40;;;;;;4830474;29;20495;-87
2022/08/24 11:31:00;;;;;;;9.50;4.10;;;25.50;96.30;;;;;;4847718;29;20384;-87
2022/08/24 11:33:45;;;;;;;10.35;4.60;;;25.50;97.00;;;;;;4823713;29;20079;-89
2022/08/24 11:36:22;;;;;;;11.10;4.57;;;25.50;96.90;;;;;;4823957;29;20046;-87
2022/08/24 11:39:29;;;;;;;11.38;4.38;;;25.50;96.30;;;;;;4854197;29;20057;-86
2022/08/24 11:42:21;;;;;;;8.95;4.53;;;25.50;97.30;;;;;;4832140;29;20050;-89
2022/08/24 11:45:11;;;;;;;11.50;4.90;;;25.50;96.70;;;;;;4778355;29;20112;-91
2022/08/24 11:48:12;;;;;;;10.73;4.88;;;25.50;96.10;;;;;;4837756;29;20050;-86
2022/08/24 11:50:40;;;;;;;9.40;4.55;;;25.60;96.40;;;;;;4809655;29;20149;-95
2022/08/24 11:53:29;;;;;;;12.15;4.60;;;25.70;96.80;;;;;;4839593;29;20039;-88
2022/08/24 11:55:56;;;;;;;10.75;3.78;;;25.80;96.70;;;;;;4831454;29;20050;-87
2022/08/24 11:58:39;;;;;;;11.57;4.45;;;25.80;96.20;;;;;;4832893;29;20045;-92
2022/08/24 12:01:38;;;;;;;11.98;5.05;;;25.80;95.60;;;;;;4839583;29;20053;-90
2022/08/24 12:04:19;;;;;;;12.10;5.10;;;25.80;96.80;;;;;;4836424;29;20054;-89
2022/08/24 12:07:01;;;;;;;10.65;4.93;;;25.90;96.20;;;;;;4821541;29;20050;-85
2022/08/24 12:09:28;;;;;;;12.73;4.03;;;25.90;96.80;;;;;;4824266;29;20053;-92
2022/08/24 12:12:24;;;;;;;8.75;4.85;;;25.90;95.20;;;;;;4809644;29;20654;-91
2022/08/24 12:15:00;;;;;;;8.25;4.90;;;25.90;95.90;;;;;;4833867;29;20066;-90
2022/08/24 12:17:39;;;;;;;12.35;5.28;;;25.80;95.30;;;;;;4833116;29;20054;-89
2022/08/24 12:20:32;;;;;;;13.88;5.10;;;25.80;95.20;;;;;;4842894;29;20056;-90
2022/08/24 12:23:06;;;;;;;13.10;4.80;;;25.90;95.90;;;;;;4837327;29;20059;-89
2022/08/24 12:28:29;;;;;;;10.63;4.82;;;25.90;96.20;;;;;;4840854;29;20054;-90
2022/08/24 12:31:06;;;;;;;13.38;4.10;;;25.90;95.80;;;;;;4835325;29;20054;-90
2022/08/24 12:33:38;;;;;;;12.93;5.57;;;25.90;95.90;;;;;;4839104;29;20050;-88
2022/08/24 12:36:35;;;;;;;12.63;4.90;;;25.90;95.90;;;;;;4822567;29;20446;-88
2022/08/24 12:39:14;;;;;;;13.57;4.70;;;25.80;94.80;;;;;;4804203;29;20089;-86
2022/08/24 12:42:01;;;;;;;10.98;4.50;;;25.80;95.10;;;;;;4818948;29;20054;-90
2022/08/24 12:44:59;;;;;;;11.40;4.65;;;25.80;95.30;;;;;;4828729;29;20118;-92
2022/08/24 12:47:30;;;;;;;12.45;5.20;;;25.80;95.30;;;;;;4838630;29;20057;-89
2022/08/24 12:50:14;;;;;;;11.93;4.68;;;25.70;95.60;;;;;;4828921;29;20050;-87
2022/08/24 12:53:11;;;;;;;11.50;5.22;;;25.70;96.40;;;;;;4830935;29;20112;-92
2022/08/24 12:55:53;;;;;;;11.52;4.63;;;25.70;96.20;;;;;;4839634;29;20073;-90
2022/08/24 12:58:51;;;;;;;8.35;4.55;;;25.70;96.10;;;;;;4840201;29;20054;-90
2022/08/24 13:01:23;;;;;;;9.38;5.20;;;25.70;96.20;;;;;;4824016;29;20054;-89
2022/08/24 13:04:31;;;;;;;10.25;4.63;;;25.70;96.30;;;;;;4832461;29;20050;-89
2022/08/24 13:07:18;;;;;;;9.93;4.57;;;25.70;96.30;;;;;;4823700;29;20062;-91
2022/08/24 13:09:46;;;;;;;8.00;4.18;;;25.70;96.30;;;;;;4840846;29;20111;-96
2022/08/24 13:12:50;;;;;;;9.43;5.20;;;25.70;95.90;;;;;;4832990;29;20084;-87
2022/08/24 13:15:43;;;;;;;12.85;4.97;;;25.70;95.30;;;;;;4811826;29;20054;-87
2022/08/24 13:18:11;;;;;;;13.05;5.60;;;25.70;95.50;;;;;;4860887;29;20053;-86
2022/08/24 13:20:41;;;;;;;12.77;5.43;;;25.70;95.20;;;;;;4855110;29;20083;-89
2022/08/24 13:23:13;;;;;;;11.30;5.03;;;25.70;95.90;;;;;;4857717;29;20115;-89
2022/08/24 13:25:46;;;;;;;9.20;4.35;;;25.70;95.40;;;;;;4857665;29;20510;-89
2022/08/24 13:28:20;;;;;;;11.15;4.85;;;25.70;95.80;;;;;;4854089;29;20076;-87
2022/08/24 13:31:32;;;;;;;8.35;4.85;;;25.60;95.90;;;;;;4841698;29;20503;-89
2022/08/24 13:34:07;;;;;;;10.48;4.97;;;25.50;96.10;;;;;;4860634;29;20045;-85
2022/08/24 13:36:35;;;;;;;11.68;4.63;;;25.50;96.40;;;;;;4850469;29;20072;-87
2022/08/24 13:39:14;;;;;;;7.53;4.28;;;25.50;96.70;;;;;;4842767;29;20042;-90
2022/08/24 13:42:11;;;;;;;9.63;5.20;;;25.40;97.50;;;;;;4847809;29;20052;-89
2022/08/24 13:45:07;;;;;;;13.10;6.55;;;25.30;99.20;;;;;;4856350;29;20083;-87
2022/08/24 13:48:06;;;;;;;11.13;5.70;;;25.00;99.90;;;;;;4852459;29;20064;-87
2022/08/24 13:50:58;;;;;;;9.98;6.90;;;25.00;99.90;;;;;;4839466;29;20487;-88
2022/08/24 13:53:54;;;;;;;11.63;6.55;;;25.20;99.90;;;;;;4841491;29;20098;-86
2022/08/24 13:56:35;;;;;;;8.63;5.55;;;25.30;99.90;;;;;;4821062;29;20049;-87
2022/08/24 13:59:21;;;;;;;7.55;4.90;;;25.30;99.90;;;;;;4844974;29;20049;-88
2022/08/24 14:02:02;;;;;;;13.27;4.50;;;25.20;99.90;;;;;;4848882;29;20050;-85
2022/08/24 14:04:39;;;;;;;9.82;4.10;;;25.20;99.90;;;;;;4841524;29;20049;-85
2022/08/24 14:07:15;;;;;;;10.50;4.68;;;25.00;99.90;;;;;;4841800;29;20064;-86
2022/08/24 14:10:05;;;;;;;8.77;4.72;;;25.00;99.90;;;;;;4827380;29;20050;-87
2022/08/24 14:12:42;;;;;;;7.25;3.95;;;24.80;99.90;;;;;;4857592;29;20053;-86
2022/08/24 14:15:20;;;;;;;10.20;4.65;;;24.90;99.90;;;;;;4858067;29;20091;-86
2022/08/24 14:18:08;;;;;;;8.55;3.65;;;24.60;99.90;;;;;;4854262;29;20049;-89
2022/08/24 14:20:59;;;;;;;8.27;4.22;;;24.70;99.90;;;;;;4852888;29;20201;-86
2022/08/24 14:23:28;;;;;;;11.15;4.50;;;24.70;99.90;;;;;;4852354;29;20393;-88
2022/08/24 14:26:36;;;;;;;8.75;4.63;;;24.80;99.90;;;;;;4841947;29;20072;-87
2022/08/24 14:29:19;;;;;;;9.30;3.67;;;24.80;99.90;;;;;;4842812;29;20076;-86
2022/08/24 14:31:52;;;;;;;;;;;24.60;99.90;;;;;;4842167;29;20046;-86
2022/08/24 14:34:39;;;;;;;8.88;3.85;;;24.60;99.90;;;;;;4847295;29;19924;-88
2022/08/24 14:37:12;;;;;;;7.22;3.25;;;24.60;99.90;;;;;;4837980;29;20834;-86
2022/08/24 14:39:58;;;;;;;6.97;3.17;;;24.60;99.90;;;;;;4874656;29;20046;-86
2022/08/24 14:42:39;;;;;;;5.72;3.55;;;24.50;99.90;;;;;;4841215;29;20068;-87
2022/08/24 14:45:16;;;;;;;9.15;4.13;;;24.60;99.90;;;;;;4841999;29;20041;-87
2022/08/24 14:48:03;;;;;;;8.00;3.80;;;24.60;99.90;;;;;;4868511;29;20057;-88
2022/08/24 14:51:00;;;;;;;7.63;3.65;;;24.60;99.90;;;;;;4856354;29;20045;-87